ADDS METAR Data INFO
IDs: Format: Raw Decoded Include TAF

Data at: 0734 UTC 18 Oct 2017

KCAD 180715Z AUTO 23008KT 10SM CLR 12/07 A3010 RMK AO2 T01250079
KCAD 180655Z AUTO 23007KT 10SM CLR 12/07 A3009 RMK AO2 T01260079
KCAD 180635Z AUTO 22007KT 10SM CLR 11/07 A3009 RMK AO2 T01180075
KCAD 180615Z AUTO 23006KT 10SM CLR 12/07 A3009 RMK AO2 T01250072
KCAD 180555Z AUTO 23008KT 10SM CLR 12/07 A3009 RMK AO2 T01260072
KCAD 180535Z AUTO 22010G15KT 10SM CLR 12/07 A3009 RMK AO2 T01300074
KCAD 180515Z AUTO 23008G14KT 10SM CLR 12/07 A3008 RMK AO2 T01240076
KCAD 180455Z AUTO 22005KT 10SM CLR 10/06 A3009 RMK AO2 T00980068
KCAD 180435Z AUTO 00000KT 10SM CLR 10/07 A3009 RMK AO2 T01020069
KCAD 180415Z AUTO 20003KT 10SM CLR 10/07 A3009 RMK AO2 T01010075
KCAD 180355Z AUTO 00000KT 10SM CLR 10/07 A3009 RMK AO2 T01050076
KCAD 180335Z AUTO 19003KT 10SM CLR 11/07 A3010 RMK AO2 T01090077
KCAD 180315Z AUTO 19004KT 10SM CLR 11/07 A3010 RMK AO2 T01140078
KCAD 180255Z AUTO 20005KT 10SM CLR 10/07 A3010 RMK AO2 T01000070
KCAD 180235Z AUTO 22003KT 10SM CLR 11/07 A3009 RMK AO2 T01080075
KCAD 180215Z AUTO 21006KT 10SM CLR 11/07 A3009 RMK AO2 T01180076
KCAD 180155Z AUTO 21007KT 10SM CLR 12/07 A3009 RMK AO2 T01200077
KCAD 180135Z AUTO 19007KT 10SM CLR 11/07 A3008 RMK AO2 T01160075
KCAD 180115Z AUTO 19006KT 10SM CLR 10/06 A3009 RMK AO2 T01000063
KCAD 180055Z AUTO 21004KT 10SM CLR 11/06 A3009 RMK AO2 T01110067
KCAD 180035Z AUTO 00000KT 10SM CLR 11/06 A3008 RMK AO2 T01130063
KCAD 180015Z AUTO 00000KT 10SM CLR 12/06 A3008 RMK AO2 T01200063
KCAD 172355Z AUTO 00000KT 10SM CLR 12/06 A3008 RMK AO2 T01210065
KCAD 172335Z AUTO 20004KT 10SM CLR 12/06 A3007 RMK AO2 T01260065
KCAD 172315Z AUTO 20005KT 10SM CLR 13/06 A3007 RMK AO2 T01330068
KCAD 172255Z AUTO 20005KT 10SM CLR 14/06 A3006 RMK AO2 T01420067
KCAD 172235Z AUTO 21006KT 10SM CLR 15/06 A3006 RMK AO2 T01500067
KCAD 172215Z AUTO 20007KT 10SM CLR 15/06 A3006 RMK AO2 T01530068
KCAD 172155Z AUTO 20009KT 10SM CLR 16/07 A3006 RMK AO2 T01620070
KCAD 172135Z AUTO 24008KT 10SM CLR 17/07 A3005 RMK AO2 T01700073
KCAD 172115Z AUTO 24011KT 10SM CLR 17/06 A3005 RMK AO2 T01760060
KCAD 172055Z AUTO 23012KT 10SM CLR 18/06 A3005 RMK AO2 T01890064
KCAD 172035Z AUTO 24011KT 10SM CLR 19/06 A3005 RMK AO2 T01930060
KCAD 172015Z AUTO 25011G17KT 10SM CLR 19/06 A3005 RMK AO2 T01930059
KCAD 171955Z AUTO 23013KT 10SM CLR 19/06 A3005 RMK AO2 T01920065
KCAD 171935Z AUTO 23014KT 10SM CLR 19/06 A3004 RMK AO2 T01920065
KCAD 171915Z AUTO 22013G16KT 10SM CLR 19/06 A3004 RMK AO2 T01960066
KCAD 171855Z AUTO 23012KT 10SM CLR 18/06 A3004 RMK AO2 T01910062
KCAD 171835Z AUTO 23012KT 10SM CLR 18/06 A3004 RMK AO2 T01910062
KCAD 171815Z AUTO 23012G19KT 10SM CLR 18/06 A3005 RMK AO2 T01910063
KCAD 171755Z AUTO 22015KT 10SM CLR 18/06 A3005 RMK AO2 T01860061
KCAD 171735Z AUTO 24011G16KT 10SM CLR 18/06 A3005 RMK AO2 T01850065
KCAD 171715Z AUTO 24013G16KT 10SM CLR 18/06 A3006 RMK AO2 T01850064
KCAD 171655Z AUTO 23015KT 10SM CLR 18/06 A3006 RMK AO2 T01800065
KCAD 171635Z AUTO 24008KT 10SM CLR 17/07 A3006 RMK AO2 T01750072
KCAD 171615Z AUTO 24014G18KT 10SM CLR 17/07 A3006 RMK AO2 T01710072
KCAD 171555Z AUTO 23015G20KT 10SM CLR 17/07 A3006 RMK AO2 T01700072
KCAD 171534Z AUTO 25013G20KT 10SM CLR 16/07 A3006 RMK AO2 T01600074
KCAD 171515Z AUTO 23015G21KT 10SM CLR 15/07 A3006 RMK AO2 T01520072
KCAD 171455Z AUTO 24011G19KT 10SM CLR 15/07 A3006 RMK AO2 T01500071
KCAD 171434Z AUTO 23015G20KT 10SM CLR 15/07 A3005 RMK AO2 T01470072
KCAD 171415Z AUTO 23011KT 10SM CLR 13/07 A3005 RMK AO2 T01400071
KCAD 171355Z AUTO 22012G18KT 10SM CLR 13/07 A3005 RMK AO2 T01330070
KCAD 171334Z AUTO 23011G16KT 10SM CLR 12/06 A3005 RMK AO2 T01250069
KCAD 171315Z AUTO 22011KT 10SM CLR 12/06 A3005 RMK AO2 T01200065
KCAD 171255Z AUTO 22009G17KT 10SM CLR 11/06 A3005 RMK AO2 T01150063
KCAD 171234Z AUTO 21009KT 10SM CLR 11/06 A3005 RMK AO2 T01100061
KCAD 171215Z AUTO 22008KT 10SM CLR 10/05 A3005 RMK AO2 T01000057
KCAD 171155Z AUTO 22007KT 10SM CLR 09/05 A3005 RMK AO2 T00930055
KCAD 171134Z AUTO 21007KT 10SM CLR 08/05 A3004 RMK AO2 T00910054
KCAD 171115Z AUTO 20007KT 10SM CLR 08/05 A3004 RMK AO2 T00910054
KCAD 171055Z AUTO 19006KT 10SM CLR 08/05 A3005 RMK AO2 T00860052
KCAD 171034Z AUTO 20007KT 10SM CLR 08/05 A3006 RMK AO2 T00800050
KCAD 171015Z AUTO 20005KT 10SM CLR 07/04 A3007 RMK AO2 T00740045
KCAD 170955Z AUTO 20005KT 10SM CLR 07/04 A3007 RMK AO2 T00750043
KCAD 170935Z AUTO 19005KT 10SM CLR 07/04 A3007 RMK AO2 T00760042
KCAD 170915Z AUTO 21006KT 10SM CLR 07/04 A3008 RMK AO2 T00740042
KCAD 170855Z AUTO 21008KT 10SM CLR 07/03 A3007 RMK AO2 T00710040
KCAD 170835Z AUTO 21008KT 10SM CLR 06/03 A3008 RMK AO2 T00670040
KCAD 170815Z AUTO 21007KT 10SM CLR 06/03 A3008 RMK AO2 T00650039
KCAD 170755Z AUTO 22006KT 10SM CLR 06/03 A3009 RMK AO2 T00650038
KCAD 170734Z AUTO 21006KT 10SM CLR 06/03 A3010 RMK AO2 T00610037
KCAD 170715Z AUTO 21005KT 10SM CLR 05/03 A3011 RMK AO2 T00570035
KCAD 170655Z AUTO 21005KT 10SM CLR 06/03 A3011 RMK AO2 T00590037
KCAD 170635Z AUTO 21004KT 10SM CLR 06/03 A3011 RMK AO2 T00600039
KCAD 170615Z AUTO 22007KT 10SM CLR 06/03 A3011 RMK AO2 T00600041
KCAD 170555Z AUTO 22006KT 10SM CLR 05/03 A3011 RMK AO2 T00550037
KCAD 170535Z AUTO 21005KT 10SM CLR 06/03 A3011 RMK AO2 T00610041
KCAD 170515Z AUTO 22007KT 10SM CLR 06/03 A3011 RMK AO2 T00580037
KCAD 170455Z AUTO 22005KT 10SM CLR 05/03 A3012 RMK AO2 T00580036
KCAD 170435Z AUTO 21008KT 10SM CLR 06/03 A3012 RMK AO2 T00680040
KCAD 170415Z AUTO 21007KT 10SM CLR 06/03 A3013 RMK AO2 T00670034
KCAD 170355Z AUTO 20005KT 10SM CLR 06/03 A3013 RMK AO2 T00660031
KCAD 170335Z AUTO 20007KT 10SM CLR 07/02 A3013 RMK AO2 T00690030
KCAD 170315Z AUTO 21008KT 10SM CLR 07/03 A3014 RMK AO2 T00710031
KCAD 170255Z AUTO 21006KT 10SM CLR 07/02 A3014 RMK AO2 T00700030
KCAD 170235Z AUTO 20004KT 10SM CLR 06/02 A3015 RMK AO2 T00660026
KCAD 170215Z AUTO 20006KT 10SM CLR 06/02 A3015 RMK AO2 T00690027
KCAD 170155Z AUTO 21007KT 10SM CLR 06/02 A3015 RMK AO2 T00670027
KCAD 170135Z AUTO 21005KT 10SM CLR 06/02 A3016 RMK AO2 T00640024
KCAD 170115Z AUTO 20005KT 10SM CLR 07/02 A3016 RMK AO2 T00760026
KCAD 170055Z AUTO 20006KT 10SM CLR 07/02 A3016 RMK AO2 T00750025
KCAD 170035Z AUTO 20005KT 10SM CLR 07/02 A3016 RMK AO2 T00760025
KCAD 170015Z AUTO 20005KT 10SM CLR 07/02 A3017 RMK AO2 T00800021
KCAD 162355Z AUTO 20005KT 10SM CLR 07/02 A3017 RMK AO2 T00800023
KCAD 162335Z AUTO 20004KT 10SM CLR 07/02 A3017 RMK AO2 T00790021
KCAD 162315Z AUTO 24004KT 10SM CLR 08/02 A3018 RMK AO2 T00840021
KCAD 162255Z AUTO 24005KT 10SM CLR 09/01 A3018 RMK AO2 T00950013
KCAD 162235Z AUTO 23008KT 10SM CLR 10/01 A3018 RMK AO2 T01030011
KCAD 162215Z AUTO 25005KT 10SM CLR 11/00 A3018 RMK AO2 T01100005
KCAD 162155Z AUTO 23012KT 10SM CLR 11/00 A3018 RMK AO2 T01160001
KCAD 162135Z AUTO 25008KT 10SM CLR 12/00 A3018 RMK AO2 T01241001
KCAD 162115Z AUTO 26007KT 10SM CLR 11/00 A3018 RMK AO2 T01170002
KCAD 162055Z AUTO 25008KT 10SM SCT046 11/00 A3019 RMK AO2 T01150000
KCAD 162035Z AUTO 27010KT 10SM BKN048 13/01 A3018 RMK AO2 T01320009
KCAD 162015Z AUTO 26007KT 210V290 10SM SCT038 SCT044 BKN050 13/01 A3018 RMK AO2 T01340010
KCAD 161955Z AUTO 25007KT 10SM BKN038 BKN046 BKN050 12/01 A3019 RMK AO2 T01210014
KCAD 161935Z AUTO 25009KT 10SM SCT036 SCT047 BKN050 13/01 A3019 RMK AO2 T01310016